Time;durP1;ratioP1;P1;durP2;ratioP2;P2;SDS_P1;SDS_P2;PMS_P1;PMS_P2;Temp;Humidity;BMP_temperature;BMP_pressure;BME280_temperature;BME280_humidity;BME280_pressure;Samples;Min_cycle;Max_cycle;Signal;HPM_P1;HPM_P2
2022/07/18 00:00:04;;;;;;;3.23;2.30;;;;;;;;;;5073869;28;20239;-54
2022/07/18 00:02:31;;;;;;;4.27;2.40;;;;;;;;;;5073666;28;20546;-54
2022/07/18 00:04:57;;;;;;;3.80;2.70;;;;;;;;;;5073616;28;20201;-54
2022/07/18 00:07:23;;;;;;;6.40;2.90;;;;;;;;;;5074024;28;20199;-54
2022/07/18 00:09:49;;;;;;;3.97;2.60;;;;;;;;;;5073801;28;20199;-54
2022/07/18 00:12:15;;;;;;;5.83;2.70;;;;;;;;;;5073613;28;20195;-54
2022/07/18 00:14:41;;;;;;;2.70;2.27;;;;;;;;;;5073502;28;20249;-54
2022/07/18 00:17:08;;;;;;;3.63;2.40;;;;;;;;;;5071558;28;20223;-54
2022/07/18 00:19:35;;;;;;;4.27;2.47;;;;;;;;;;5071431;28;20199;-54
2022/07/18 00:22:01;;;;;;;6.77;4.73;;;;;;;;;;5073220;28;20274;-54
2022/07/18 00:24:27;;;;;;;6.87;6.17;;;;;;;;;;5073468;28;20215;-54
2022/07/18 00:26:53;;;;;;;3.33;2.80;;;;;;;;;;5073140;28;20231;-52
2022/07/18 00:29:19;;;;;;;4.10;2.33;;;;;;;;;;5073470;28;20218;-52
2022/07/18 00:31:46;;;;;;;2.63;2.20;;;;;;;;;;5073047;28;20200;-52
2022/07/18 00:34:12;;;;;;;3.37;2.40;;;;;;;;;;5073180;28;20563;-50
2022/07/18 00:36:39;;;;;;;3.03;2.40;;;;;;;;;;5073195;28;20202;-52
2022/07/18 00:39:05;;;;;;;3.57;2.33;;;;;;;;;;5073024;28;20689;-53
2022/07/18 00:41:31;;;;;;;3.83;2.40;;;;;;;;;;5073147;28;20224;-53
2022/07/18 00:43:57;;;;;;;2.60;2.40;;;;;;;;;;5072878;28;20745;-52
2022/07/18 00:46:23;;;;;;;19.20;17.20;;;;;;;;;;5070971;28;20188;-50
2022/07/18 00:48:49;;;;;;;4.33;2.60;;;;;;;;;;5070127;28;20226;-53
2022/07/18 00:51:16;;;;;;;2.97;2.23;;;;;;;;;;5071985;28;20217;-53
2022/07/18 00:53:43;;;;;;;3.67;2.53;;;;;;;;;;5071770;28;20673;-53
2022/07/18 00:56:10;;;;;;;2.83;2.43;;;;;;;;;;5072414;28;20218;-53
2022/07/18 00:58:36;;;;;;;3.00;2.00;;;;;;;;;;5072715;28;20696;-53
2022/07/18 01:03:47;;;;;;;3.00;2.20;;;;;;;;;;5072090;28;20194;-51
2022/07/18 01:06:13;;;;;;;5.40;2.20;;;;;;;;;;5072545;28;20292;-53
2022/07/18 01:08:39;;;;;;;2.50;2.23;;;;;;;;;;5072742;28;20199;-53
2022/07/18 01:11:07;;;;;;;4.40;2.50;;;;;;;;;;5072560;28;20597;-53
2022/07/18 01:13:33;;;;;;;3.03;2.40;;;;;;;;;;5072749;28;20204;-53
2022/07/18 01:15:59;;;;;;;4.67;2.30;;;;;;;;;;5072525;28;20254;-53
2022/07/18 01:18:25;;;;;;;4.60;2.40;;;;;;;;;;5072326;28;20199;-53
2022/07/18 01:20:52;;;;;;;3.27;2.40;;;;;;;;;;5072093;28;20234;-53
2022/07/18 01:23:18;;;;;;;2.87;2.30;;;;;;;;;;5072425;28;20178;-52
2022/07/18 01:25:44;;;;;;;;;;;;;;;;;;5072896;28;20045;-52
2022/07/18 01:28:10;;;;;;;;;;;;;;;;;;5072755;28;20414;-52
2022/07/18 01:30:36;;;;;;;;;;;;;;;;;;5072846;28;20007;-52
2022/07/18 01:33:02;;;;;;;4.72;2.85;;;;;;;;;;5071087;28;20400;-53
2022/07/18 01:35:29;;;;;;;4.90;2.57;;;;;;;;;;5072215;28;20199;-52
2022/07/18 01:37:57;;;;;;;7.50;6.20;;;;;;;;;;5072143;28;20332;-51
2022/07/18 01:40:23;;;;;;;;;;;;;;;;;;5072614;28;20124;-52
2022/07/18 01:42:49;;;;;;;;;;;;;;;;;;5072560;28;19970;-52
2022/07/18 01:45:15;;;;;;;;;;;;;;;;;;5072756;28;19904;-52
2022/07/18 01:47:41;;;;;;;;;;;;;;;;;;5072611;28;19904;-52
2022/07/18 01:50:06;;;;;;;;;;;;;;;;;;5072543;28;20278;-53
2022/07/18 01:52:32;;;;;;;;;;;;;;;;;;5072627;28;19947;-52
2022/07/18 01:54:58;;;;;;;;;;;;;;;;;;5072425;28;19905;-51
2022/07/18 01:57:24;;;;;;;;;;;;;;;;;;5072572;28;20366;-52
2022/07/18 01:59:50;;;;;;;;;;;;;;;;;;5072063;28;19950;-52
2022/07/18 02:02:16;;;;;;;;;;;;;;;;;;5072572;28;19904;-52
2022/07/18 02:05:00;;;;;;;;;;;;;;;;;;5072597;28;19905;-51
2022/07/18 02:07:26;;;;;;;;;;;;;;;;;;5076617;28;19999;-52
2022/07/18 02:09:52;;;;;;;;;;;;;;;;;;5076483;28;20003;-52
2022/07/18 02:12:18;;;;;;;;;;;;;;;;;;5076453;28;19908;-53
2022/07/18 02:14:44;;;;;;;;;;;;;;;;;;5076288;28;19951;-52
2022/07/18 02:17:10;;;;;;;;;;;;;;;;;;5076160;28;19958;-52
2022/07/18 02:19:35;;;;;;;;;;;;;;;;;;5076340;28;19905;-53
2022/07/18 02:22:01;;;;;;;;;;;;;;;;;;5076102;28;19919;-52
2022/07/18 02:24:27;;;;;;;;;;;;;;;;;;5076312;28;20323;-52
2022/07/18 02:26:53;;;;;;;;;;;;;;;;;;5075893;28;19927;-51
2022/07/18 02:29:19;;;;;;;;;;;;;;;;;;5074916;28;20124;-52
2022/07/18 02:31:45;;;;;;;;;;;;;;;;;;5076141;28;19904;-52
2022/07/18 02:34:10;;;;;;;;;;;;;;;;;;5076085;28;20485;-52
2022/07/18 02:36:36;;;;;;;;;;;;;;;;;;5075946;28;20262;-52
2022/07/18 02:39:02;;;;;;;;;;;;;;;;;;5075867;28;19926;-52
2022/07/18 02:41:28;;;;;;;;;;;;;;;;;;5075741;28;19912;-51
2022/07/18 02:43:54;;;;;;;;;;;;;;;;;;5075730;28;19957;-51
2022/07/18 02:46:20;;;;;;;;;;;;;;;;;;5075908;28;19909;-52
2022/07/18 02:48:46;;;;;;;;;;;;;;;;;;5075748;28;19950;-52
2022/07/18 02:51:11;;;;;;;;;;;;;;;;;;5075508;28;19904;-51
2022/07/18 02:53:37;;;;;;;;;;;;;;;;;;5075627;28;19911;-54
2022/07/18 02:56:03;;;;;;;;;;;;;;;;;;5075594;28;19904;-50
2022/07/18 02:58:29;;;;;;;;;;;;;;;;;;5075594;28;19973;-52
2022/07/18 03:00:55;;;;;;;;;;;;;;;;;;5075308;28;20398;-53
2022/07/18 03:03:21;;;;;;;;;;;;;;;;;;5075568;28;20358;-52
2022/07/18 03:05:46;;;;;;;;;;;;;;;;;;5075258;28;19905;-54
2022/07/18 03:08:12;;;;;;;;;;;;;;;;;;5075335;28;19911;-54
2022/07/18 03:10:38;;;;;;;;;;;;;;;;;;5075402;28;19905;-52
2022/07/18 03:13:05;;;;;;;;;;;;;;;;;;5075274;28;20389;-52
2022/07/18 03:15:31;;;;;;;;;;;;;;;;;;5075413;28;19904;-52
2022/07/18 03:17:57;;;;;;;;;;;;;;;;;;5075137;28;20389;-52
2022/07/18 03:20:22;;;;;;;;;;;;;;;;;;5075150;28;20309;-52
2022/07/18 03:22:48;;;;;;;;;;;;;;;;;;5075070;28;19912;-52
2022/07/18 03:25:15;;;;;;;;;;;;;;;;;;5075226;28;19920;-53
2022/07/18 03:27:41;;;;;;;;;;;;;;;;;;5074915;28;19911;-52
2022/07/18 03:30:07;;;;;;;;;;;;;;;;;;5074966;28;19904;-53
2022/07/18 03:32:33;;;;;;;;;;;;;;;;;;5074833;28;19904;-52
2022/07/18 03:34:58;;;;;;;;;;;;;;;;;;5074478;28;19904;-52
2022/07/18 03:37:24;;;;;;;;;;;;;;;;;;5074407;28;19904;-52
2022/07/18 03:39:50;;;;;;;;;;;;;;;;;;5074558;28;20355;-53
2022/07/18 03:42:16;;;;;;;;;;;;;;;;;;5074898;28;19911;-52
2022/07/18 03:44:42;;;;;;;;;;;;;;;;;;5074827;28;19909;-52
2022/07/18 03:47:08;;;;;;;;;;;;;;;;;;5074514;28;20419;-53
2022/07/18 03:49:33;;;;;;;;;;;;;;;;;;5074864;28;20274;-52
2022/07/18 03:51:59;;;;;;;;;;;;;;;;;;5074461;28;19944;-52
2022/07/18 03:54:25;;;;;;;;;;;;;;;;;;5074455;28;19904;-52
2022/07/18 03:56:51;;;;;;;;;;;;;;;;;;5074406;28;19911;-52
2022/07/18 03:59:17;;;;;;;;;;;;;;;;;;5074606;28;19905;-53
2022/07/18 04:01:43;;;;;;;;;;;;;;;;;;5074374;28;20381;-51
2022/07/18 04:04:09;;;;;;;;;;;;;;;;;;5074322;28;20347;-52
2022/07/18 04:06:34;;;;;;;;;;;;;;;;;;5074389;28;19904;-53
2022/07/18 04:09:00;;;;;;;;;;;;;;;;;;5074236;28;20281;-53
2022/07/18 04:11:26;;;;;;;;;;;;;;;;;;5074188;28;19926;-52
2022/07/18 04:13:52;;;;;;;;;;;;;;;;;;5074153;28;19904;-52
2022/07/18 04:16:18;;;;;;;;;;;;;;;;;;5074129;28;20286;-53
2022/07/18 04:18:44;;;;;;;;;;;;;;;;;;5074094;28;19991;-52
2022/07/18 04:21:10;;;;;;;;;;;;;;;;;;5073617;28;19924;-54
2022/07/18 04:23:35;;;;;;;;;;;;;;;;;;5074117;28;19916;-54
2022/07/18 04:26:03;;;;;;;;;;;;;;;;;;5073978;28;19905;-53
2022/07/18 04:28:29;;;;;;;;;;;;;;;;;;5073449;28;19910;-52
2022/07/18 04:30:55;;;;;;;;;;;;;;;;;;5073803;28;19900;-53
2022/07/18 04:33:22;;;;;;;4.27;2.80;;;;;;;;;;5073419;28;19931;-52
2022/07/18 04:35:49;;;;;;;4.20;3.47;;;;;;;;;;5072073;28;20901;-52
2022/07/18 04:38:15;;;;;;;5.13;3.40;;;;;;;;;;5071989;28;20415;-51
2022/07/18 04:40:41;;;;;;;3.72;3.22;;;;;;;;;;5071979;28;20462;-52
2022/07/18 04:43:07;;;;;;;5.35;3.20;;;;;;;;;;5071713;28;20388;-53
2022/07/18 04:45:34;;;;;;;4.90;3.10;;;;;;;;;;5071884;28;20407;-53
2022/07/18 04:48:00;;;;;;;4.07;3.25;;;;;;;;;;5071660;28;20411;-52
2022/07/18 04:50:29;;;;;;;3.90;3.08;;;;;;;;;;5070906;28;20388;-53
2022/07/18 04:52:56;;;;;;;5.03;3.33;;;;;;;;;;5071703;28;20450;-52
2022/07/18 04:55:22;;;;;;;5.57;3.40;;;;;;;;;;5071809;28;20491;-52
2022/07/18 04:57:48;;;;;;;3.80;2.90;;;;;;;;;;5071702;28;20407;-52
2022/07/18 05:00:16;;;;;;;4.50;3.03;;;;;;;;;;5071431;28;20419;-51
2022/07/18 05:02:42;;;;;;;4.18;2.75;;;;;;;;;;5071553;28;20403;-52
2022/07/18 05:05:09;;;;;;;5.77;3.10;;;;;;;;;;5071410;28;20446;-53
2022/07/18 05:07:35;;;;;;;;;;;;;;;;;;5073130;28;20313;-52
2022/07/18 05:10:03;;;;;;;;;;;;;;;;;;5072949;28;20394;-52
2022/07/18 05:12:29;;;;;;;;;;;;;;;;;;5073168;28;19999;-52
2022/07/18 05:14:55;;;;;;;;;;;;;;;;;;5073011;28;20349;-52
2022/07/18 05:17:21;;;;;;;;;;;;;;;;;;5073000;28;19910;-53
2022/07/18 05:19:47;;;;;;;;;;;;;;;;;;5072921;28;19908;-52
2022/07/18 05:22:13;;;;;;;;;;;;;;;;;;5072613;28;19920;-52
2022/07/18 05:24:39;;;;;;;;;;;;;;;;;;5072921;28;19908;-52
2022/07/18 05:27:04;;;;;;;;;;;;;;;;;;5072874;28;19957;-51
2022/07/18 05:29:30;;;;;;;;;;;;;;;;;;5072887;28;19912;-52
2022/07/18 05:31:56;;;;;;;;;;;;;;;;;;5072721;28;19998;-52
2022/07/18 05:34:22;;;;;;;;;;;;;;;;;;5072774;28;19912;-53
2022/07/18 05:36:48;;;;;;;;;;;;;;;;;;5072529;28;19904;-53
2022/07/18 05:39:14;;;;;;;;;;;;;;;;;;5072012;28;19943;-53
2022/07/18 05:41:39;;;;;;;;;;;;;;;;;;5072094;28;20440;-51
2022/07/18 05:44:05;;;;;;;;;;;;;;;;;;5071407;28;19943;-53
2022/07/18 05:46:31;;;;;;;;;;;;;;;;;;5072455;28;19912;-54
2022/07/18 05:48:57;;;;;;;;;;;;;;;;;;5072456;28;19965;-53
2022/07/18 05:51:23;;;;;;;;;;;;;;;;;;5072523;28;19999;-53
2022/07/18 05:53:50;;;;;;;4.17;2.50;;;;;;;;;;5072138;28;20198;-53
2022/07/18 05:56:16;;;;;;;;;;;;;;;;;;5072685;28;20056;-53
2022/07/18 05:58:42;;;;;;;;;;;;;;;;;;5072580;28;19957;-53
2022/07/18 06:01:08;;;;;;;;;;;;;;;;;;5071848;28;19916;-53
2022/07/18 06:03:34;;;;;;;;;;;;;;;;;;5072441;28;19947;-53
2022/07/18 06:06:00;;;;;;;5.03;2.58;;;;;;;;;;5070675;28;20418;-54
2022/07/18 06:08:26;;;;;;;;;;;;;;;;;;5072476;28;20053;-53
2022/07/18 06:10:53;;;;;;;3.90;2.23;;;;;;;;;;5071986;28;20181;-53
2022/07/18 06:13:19;;;;;;;6.17;2.30;;;;;;;;;;5071901;28;20691;-53
2022/07/18 06:15:45;;;;;;;4.33;2.20;;;;;;;;;;5071884;28;20364;-52
2022/07/18 06:18:11;;;;;;;3.33;2.13;;;;;;;;;;5071633;28;20283;-52
2022/07/18 06:20:37;;;;;;;3.77;2.03;;;;;;;;;;5071323;28;20319;-53
2022/07/18 06:23:03;;;;;;;5.93;2.20;;;;;;;;;;5071786;28;20196;-53
2022/07/18 06:25:29;;;;;;;3.50;2.30;;;;;;;;;;5071828;28;20327;-53
2022/07/18 06:27:56;;;;;;;2.50;2.13;;;;;;;;;;5071643;28;20198;-52
2022/07/18 06:30:23;;;;;;;4.63;2.37;;;;;;;;;;5071786;28;20195;-53
2022/07/18 06:32:48;;;;;;;;;;;;;;;;;;5072030;28;20040;-52
2022/07/18 06:35:14;;;;;;;5.40;2.38;;;;;;;;;;5069781;28;20872;-52
2022/07/18 06:37:40;;;;;;;5.95;2.25;;;;;;;;;;5070146;28;20774;-53
2022/07/18 06:40:07;;;;;;;3.92;2.17;;;;;;;;;;5069905;28;20407;-53
2022/07/18 06:42:33;;;;;;;;;;;;;;;;;;5072054;28;20131;-53
2022/07/18 06:44:59;;;;;;;;;;;;;;;;;;5071530;28;20000;-53
2022/07/18 06:47:24;;;;;;;;;;;;;;;;;;5071863;28;19904;-52
2022/07/18 06:49:50;;;;;;;;;;;;;;;;;;5071878;28;20371;-52
2022/07/18 06:52:16;;;;;;;;;;;;;;;;;;5074510;28;20278;-53
2022/07/18 06:54:42;;;;;;;;;;;;;;;;;;5075449;28;19944;-53
2022/07/18 06:57:09;;;;;;;;;;;;;;;;;;5075491;28;20370;-53
2022/07/18 06:59:35;;;;;;;;;;;;;;;;;;5075513;28;19912;-53
2022/07/18 07:02:00;;;;;;;;;;;;;;;;;;5075182;28;19916;-53
2022/07/18 07:04:26;;;;;;;;;;;;;;;;;;5075555;28;19911;-54
2022/07/18 07:06:52;;;;;;;;;;;;;;;;;;5075374;28;20370;-54
2022/07/18 07:09:18;;;;;;;;;;;;;;;;;;5075177;28;20359;-54
2022/07/18 07:11:44;;;;;;;;;;;;;;;;;;5074459;28;19904;-54
2022/07/18 07:14:10;;;;;;;;;;;;;;;;;;5075110;28;19912;-54
2022/07/18 07:16:35;;;;;;;;;;;;;;;;;;5075292;28;19936;-54
2022/07/18 07:19:01;;;;;;;;;;;;;;;;;;5075157;28;19904;-55
2022/07/18 07:21:27;;;;;;;;;;;;;;;;;;5074870;28;19918;-53
2022/07/18 07:23:53;;;;;;;;;;;;;;;;;;5075039;28;19900;-53
2022/07/18 07:26:19;;;;;;;;;;;;;;;;;;5075252;28;19934;-52
2022/07/18 07:28:45;;;;;;;;;;;;;;;;;;5075130;28;19947;-53
2022/07/18 07:31:11;;;;;;;;;;;;;;;;;;5074780;28;19915;-52
2022/07/18 07:33:37;;;;;;;;;;;;;;;;;;5075183;28;19904;-51
2022/07/18 07:36:04;;;;;;;;;;;;;;;;;;5074978;28;19946;-52
2022/07/18 07:38:30;;;;;;;;;;;;;;;;;;5075105;28;19999;-50
2022/07/18 07:40:56;;;;;;;;;;;;;;;;;;5074812;28;20038;-52
2022/07/18 07:43:23;;;;;;;;;;;;;;;;;;5074991;28;19927;-53
2022/07/18 07:45:50;;;;;;;;;;;;;;;;;;5074834;28;19905;-52
2022/07/18 07:48:16;;;;;;;;;;;;;;;;;;5074275;28;19905;-50
2022/07/18 07:50:42;;;;;;;;;;;;;;;;;;5074591;28;20277;-53
2022/07/18 07:53:08;;;;;;;;;;;;;;;;;;5074449;28;19905;-51
2022/07/18 07:55:33;;;;;;;;;;;;;;;;;;5074363;28;19943;-53
2022/07/18 07:57:59;;;;;;;;;;;;;;;;;;5074500;28;19911;-51
2022/07/18 08:00:26;;;;;;;;;;;;;;;;;;5074220;28;20377;-52
2022/07/18 08:02:52;;;;;;;;;;;;;;;;;;5073335;28;19911;-54
2022/07/18 08:05:18;;;;;;;;;;;;;;;;;;5073990;28;19943;-54
2022/07/18 08:07:44;;;;;;;;;;;;;;;;;;5074328;28;19939;-55
2022/07/18 08:10:09;;;;;;;;;;;;;;;;;;5074245;28;19950;-55
2022/07/18 08:12:35;;;;;;;;;;;;;;;;;;5074154;28;19904;-54
2022/07/18 08:15:01;;;;;;;;;;;;;;;;;;5074045;28;19911;-54
2022/07/18 08:17:27;;;;;;;;;;;;;;;;;;5074209;28;19904;-53
2022/07/18 08:19:53;;;;;;;;;;;;;;;;;;5074051;28;20344;-54
2022/07/18 08:22:19;;;;;;;;;;;;;;;;;;5073792;28;19973;-54
2022/07/18 08:24:45;;;;;;;;;;;;;;;;;;5074136;28;20248;-53
2022/07/18 08:27:11;;;;;;;;;;;;;;;;;;5073148;28;19904;-54
2022/07/18 08:29:38;;;;;;;2.90;1.70;;;;;;;;;;5072163;28;20376;-53
2022/07/18 08:32:04;;;;;;;7.20;1.77;;;;;;;;;;5073221;28;20207;-54
2022/07/18 08:34:31;;;;;;;4.03;1.70;;;;;;;;;;5073364;28;20295;-54
2022/07/18 08:36:57;;;;;;;3.57;1.73;;;;;;;;;;5073095;28;20204;-53
2022/07/18 08:39:23;;;;;;;2.83;1.30;;;;;;;;;;5073222;28;20253;-54
2022/07/18 08:41:50;;;;;;;6.33;2.30;;;;;;;;;;5072880;28;20228;-54
2022/07/18 08:44:16;;;;;;;3.50;1.60;;;;;;;;;;5072133;28;20363;-54
2022/07/18 08:46:48;;;;;;;3.57;1.50;;;;;;;;;;5071530;28;20723;-54
2022/07/18 08:49:14;;;;;;;2.00;1.50;;;;;;;;;;5072462;28;20209;-55
2022/07/18 08:51:40;;;;;;;2.70;1.57;;;;;;;;;;5072800;28;20239;-54
2022/07/18 08:54:06;;;;;;;1.83;1.40;;;;;;;;;;5072633;28;20719;-54
2022/07/18 08:56:32;;;;;;;3.00;1.80;;;;;;;;;;5072640;28;20207;-55
2022/07/18 08:59:02;;;;;;;1.93;1.67;;;;;;;;;;5072389;28;20210;-54
2022/07/18 09:01:28;;;;;;;2.93;1.60;;;;;;;;;;5072323;28;20231;-53
2022/07/18 09:06:44;;;;;;;3.30;2.17;;;;;;;;;;5072448;28;20204;-53
2022/07/18 09:09:11;;;;;;;4.93;2.10;;;;;;;;;;5072490;28;20202;-54
2022/07/18 09:11:37;;;;;;;4.47;2.40;;;;;;;;;;5072353;28;20272;-53
2022/07/18 09:14:03;;;;;;;5.03;2.07;;;;;;;;;;5072329;28;20587;-54
2022/07/18 09:16:29;;;;;;;3.90;2.23;;;;;;;;;;5072492;28;20201;-54
2022/07/18 09:18:57;;;;;;;4.80;2.17;;;;;;;;;;5072572;28;20232;-55
2022/07/18 09:21:24;;;;;;;3.50;2.70;;;;;;;;;;5072127;28;20591;-54
2022/07/18 09:23:52;;;;;;;3.37;2.40;;;;;;;;;;5072690;28;20542;-54
2022/07/18 09:26:33;;;;;;;4.03;2.67;;;;;;;;;;5070499;28;20221;-54
2022/07/18 09:28:59;;;;;;;5.03;3.50;;;;;;;;;;5089771;28;20663;-55
2022/07/18 09:31:25;;;;;;;4.83;3.03;;;;;;;;;;5092089;28;20253;-53
2022/07/18 09:33:54;;;;;;;4.43;2.93;;;;;;;;;;5091058;28;20217;-54
2022/07/18 09:36:21;;;;;;;4.13;2.70;;;;;;;;;;5090208;28;20207;-53
2022/07/18 09:38:47;;;;;;;3.87;2.97;;;;;;;;;;5092342;28;20206;-53
2022/07/18 09:41:13;;;;;;;3.60;2.90;;;;;;;;;;5092217;28;20236;-53
2022/07/18 09:43:40;;;;;;;4.70;3.17;;;;;;;;;;5092534;28;20206;-54
2022/07/18 09:46:07;;;;;;;4.43;3.40;;;;;;;;;;5092057;28;20656;-54
2022/07/18 09:48:33;;;;;;;5.23;3.50;;;;;;;;;;5092174;28;20190;-54
2022/07/18 09:51:00;;;;;;;3.97;3.57;;;;;;;;;;5092073;28;20240;-53
2022/07/18 09:53:28;;;;;;;3.57;3.27;;;;;;;;;;5092099;28;20660;-54
2022/07/18 09:55:56;;;;;;;5.07;3.90;;;;;;;;;;5092321;28;20198;-54
2022/07/18 09:58:23;;;;;;;5.27;3.70;;;;;;;;;;5092168;28;20203;-54
2022/07/18 10:00:49;;;;;;;4.07;2.63;;;;;;;;;;5092145;28;20276;-54
2022/07/18 10:03:16;;;;;;;4.13;3.70;;;;;;;;;;5092118;28;20206;-54
2022/07/18 10:05:43;;;;;;;3.13;2.33;;;;;;;;;;5092064;28;20264;-54
2022/07/18 10:08:10;;;;;;;3.00;2.67;;;;;;;;;;5091908;28;20651;-54
2022/07/18 10:10:38;;;;;;;4.93;2.43;;;;;;;;;;5092202;28;20273;-54
2022/07/18 10:13:05;;;;;;;4.10;2.50;;;;;;;;;;5091577;28;20294;-54
2022/07/18 10:15:32;;;;;;;4.27;2.47;;;;;;;;;;5092191;28;20197;-54
2022/07/18 10:17:58;;;;;;;2.93;2.60;;;;;;;;;;5092236;28;20286;-54
2022/07/18 10:20:29;;;;;;;4.20;3.00;;;;;;;;;;5092145;28;20222;-54
2022/07/18 10:22:56;;;;;;;3.50;2.50;;;;;;;;;;5084223;28;20739;-53
2022/07/18 10:25:26;;;;;;;4.13;2.70;;;;;;;;;;5089338;28;20661;-53
2022/07/18 10:33:40;;;;;;;4.00;2.53;;;;;;;;;;5938063;22;20266;-56
2022/07/18 10:36:07;;;;;;;3.00;2.70;;;;;;;;;;4977113;28;20615;-56
2022/07/18 10:38:33;;;;;;;2.83;2.50;;;;;;;;;;4996327;28;20204;-57
2022/07/18 10:41:04;;;;;;;6.83;2.50;;;;;;;;;;4996636;28;20320;-56
2022/07/18 10:43:34;;;;;;;3.20;2.50;;;;;;;;;;4996185;28;20195;-57
2022/07/18 10:46:01;;;;;;;4.40;2.70;;;;;;;;;;4994533;28;20197;-56
2022/07/18 10:48:45;;;;;;;2.50;2.13;;;;;;;;;;4996123;28;20210;-56
2022/07/18 10:51:15;;;;;;;7.57;2.43;;;;;;;;;;4996495;28;20194;-57
2022/07/18 10:53:55;;;;;;;6.53;2.50;;;;;;;;;;4996095;28;20213;-57
2022/07/18 10:56:21;;;;;;;3.47;2.07;;;;;;;;;;4996167;28;20266;-55
2022/07/18 10:58:47;;;;;;;3.90;2.27;;;;;;;;;;4995649;28;20200;-54
2022/07/18 11:01:16;;;;;;;3.33;2.23;;;;;;;;;;4995773;28;20232;-54
2022/07/18 11:03:42;;;;;;;3.00;2.37;;;;;;;;;;4993829;28;20716;-56
2022/07/18 11:06:08;;;;;;;2.70;2.33;;;;;;;;;;4995555;28;20202;-57
2022/07/18 11:08:35;;;;;;;3.37;2.37;;;;;;;;;;4995453;28;20230;-55
2022/07/18 11:11:08;;;;;;;6.77;2.47;;;;;;;;;;4995774;28;20201;-55
2022/07/18 11:13:35;;;;;;;2.57;2.37;;;;;;;;;;4995213;28;20723;-55
2022/07/18 11:16:04;;;;;;;3.80;2.50;;;;;;;;;;4995662;28;20263;-55
2022/07/18 11:18:30;;;;;;;4.17;2.60;;;;;;;;;;4994597;28;20731;-54
2022/07/18 11:20:56;;;;;;;2.57;2.37;;;;;;;;;;4995192;28;20239;-55
2022/07/18 11:23:23;;;;;;;4.70;2.73;;;;;;;;;;4995484;28;20208;-54
2022/07/18 11:25:54;;;;;;;3.67;2.67;;;;;;;;;;4995111;28;20199;-55
2022/07/18 11:28:20;;;;;;;5.30;2.73;;;;;;;;;;4995207;28;20208;-55
2022/07/18 11:30:46;;;;;;;3.03;2.23;;;;;;;;;;4994978;28;20683;-55
2022/07/18 11:33:22;;;;;;;4.10;2.83;;;;;;;;;;5005191;28;20216;-54
2022/07/18 11:35:49;;;;;;;3.10;2.47;;;;;;;;;;5012675;28;20320;-56
2022/07/18 11:38:15;;;;;;;2.80;2.40;;;;;;;;;;5012606;28;20200;-55
2022/07/18 11:40:48;;;;;;;3.63;2.23;;;;;;;;;;5014089;28;20227;-55
2022/07/18 11:43:21;;;;;;;3.23;2.07;;;;;;;;;;5013327;28;20207;-56
2022/07/18 11:45:47;;;;;;;4.00;2.23;;;;;;;;;;5014159;28;20210;-56
2022/07/18 11:48:21;;;;;;;3.00;1.97;;;;;;;;;;5014232;28;20698;-55
2022/07/18 11:50:47;;;;;;;4.07;2.57;;;;;;;;;;5014255;28;20208;-55
2022/07/18 11:53:14;;;;;;;4.90;2.30;;;;;;;;;;5014385;28;20202;-55
2022/07/18 11:55:41;;;;;;;7.20;2.70;;;;;;;;;;5013816;28;20284;-55
2022/07/18 11:58:07;;;;;;;5.90;2.40;;;;;;;;;;5014302;28;20264;-56
2022/07/18 12:00:35;;;;;;;4.70;2.47;;;;;;;;;;5014059;28;20256;-55
2022/07/18 12:03:01;;;;;;;3.40;2.13;;;;;;;;;;5014167;28;20218;-56
2022/07/18 12:05:31;;;;;;;2.80;2.30;;;;;;;;;;5014079;28;20191;-56
2022/07/18 12:07:57;;;;;;;4.33;2.70;;;;;;;;;;5013978;28;20295;-55
2022/07/18 12:10:24;;;;;;;2.83;2.40;;;;;;;;;;5014010;28;20223;-56
2022/07/18 12:12:50;;;;;;;5.47;2.57;;;;;;;;;;5013763;28;20200;-56
2022/07/18 12:15:16;;;;;;;5.53;2.83;;;;;;;;;;5013774;28;20296;-55
2022/07/18 12:17:50;;;;;;;2.87;2.57;;;;;;;;;;5005498;28;20287;-55
2022/07/18 12:20:17;;;;;;;3.60;2.87;;;;;;;;;;5013386;28;20283;-55
2022/07/18 12:23:01;;;;;;;3.37;2.50;;;;;;;;;;5013274;28;20306;-55
2022/07/18 12:25:55;;;;;;;6.03;2.93;;;;;;;;;;5013650;28;20188;-55
2022/07/18 12:28:21;;;;;;;3.40;2.93;;;;;;;;;;5004780;28;20217;-56
2022/07/18 12:30:48;;;;;;;3.40;3.10;;;;;;;;;;5013429;28;20201;-56
2022/07/18 12:33:15;;;;;;;4.73;2.47;;;;;;;;;;5013313;28;20222;-55
2022/07/18 12:35:42;;;;;;;3.73;2.63;;;;;;;;;;5013109;28;20237;-55
2022/07/18 12:38:09;;;;;;;5.27;2.53;;;;;;;;;;5013393;28;20198;-56
2022/07/18 12:40:40;;;;;;;4.43;2.60;;;;;;;;;;5013162;28;20202;-55
2022/07/18 12:43:07;;;;;;;2.30;2.10;;;;;;;;;;5013397;28;20201;-55
2022/07/18 12:45:33;;;;;;;4.53;2.40;;;;;;;;;;5012947;28;20205;-55
2022/07/18 12:48:00;;;;;;;4.03;2.63;;;;;;;;;;5013292;28;20675;-55
2022/07/18 12:50:27;;;;;;;3.80;2.30;;;;;;;;;;5012728;28;20606;-55
2022/07/18 12:52:53;;;;;;;3.53;2.60;;;;;;;;;;5013109;28;20209;-56
2022/07/18 12:55:19;;;;;;;3.47;2.30;;;;;;;;;;5012941;28;20230;-56
2022/07/18 12:57:45;;;;;;;6.20;2.40;;;;;;;;;;5012729;28;20685;-56
2022/07/18 13:00:12;;;;;;;5.00;2.50;;;;;;;;;;5013066;28;20200;-56
2022/07/18 13:02:38;;;;;;;4.30;2.60;;;;;;;;;;5012940;28;20493;-56
2022/07/18 13:05:04;;;;;;;3.63;2.23;;;;;;;;;;5012779;28;20202;-56
2022/07/18 13:07:31;;;;;;;3.33;2.33;;;;;;;;;;5011175;28;20214;-57
2022/07/18 13:09:57;;;;;;;3.17;2.70;;;;;;;;;;5013039;28;20586;-57
2022/07/18 13:12:23;;;;;;;3.57;2.50;;;;;;;;;;5013118;28;20205;-57
2022/07/18 13:14:49;;;;;;;2.50;2.20;;;;;;;;;;5012654;28;20208;-57
2022/07/18 13:17:15;;;;;;;5.27;2.50;;;;;;;;;;5013069;28;20204;-57
2022/07/18 13:19:41;;;;;;;3.60;2.27;;;;;;;;;;5012778;28;20228;-57
2022/07/18 13:22:08;;;;;;;3.33;2.70;;;;;;;;;;5012627;28;20321;-57
2022/07/18 13:24:36;;;;;;;3.77;2.40;;;;;;;;;;5012791;28;20287;-57
2022/07/18 13:27:03;;;;;;;3.13;2.60;;;;;;;;;;5012753;28;20209;-57
2022/07/18 13:29:29;;;;;;;3.53;2.63;;;;;;;;;;5012756;28;20209;-57
2022/07/18 13:31:55;;;;;;;5.87;3.03;;;;;;;;;;5012457;28;20686;-57
2022/07/18 13:34:21;;;;;;;3.90;2.30;;;;;;;;;;5012332;28;20611;-57
2022/07/18 13:36:51;;;;;;;2.97;2.40;;;;;;;;;;5012504;28;20196;-57
2022/07/18 13:39:17;;;;;;;6.10;3.00;;;;;;;;;;5012726;28;20207;-57
2022/07/18 13:41:45;;;;;;;3.17;2.20;;;;;;;;;;5012395;28;20595;-57
2022/07/18 13:44:11;;;;;;;3.90;2.73;;;;;;;;;;5012555;28;20659;-57
2022/07/18 13:46:39;;;;;;;5.33;2.47;;;;;;;;;;5012173;28;20211;-57
2022/07/18 13:49:05;;;;;;;2.80;2.50;;;;;;;;;;5011898;28;20215;-54
2022/07/18 13:51:31;;;;;;;2.67;2.43;;;;;;;;;;5012420;28;20243;-54
2022/07/18 13:53:57;;;;;;;5.13;2.40;;;;;;;;;;5012289;28;20228;-54
2022/07/18 13:56:23;;;;;;;3.77;2.30;;;;;;;;;;5012388;28;20200;-54
2022/07/18 13:58:51;;;;;;;5.60;2.50;;;;;;;;;;5012241;28;20675;-54
2022/07/18 14:01:17;;;;;;;2.47;2.10;;;;;;;;;;5011542;28;20713;-54
2022/07/18 14:03:43;;;;;;;2.97;2.00;;;;;;;;;;5012091;28;20200;-54
2022/07/18 14:06:09;;;;;;;5.13;2.20;;;;;;;;;;5012234;28;20196;-54
2022/07/18 14:08:36;;;;;;;2.73;2.40;;;;;;;;;;5012072;28;20206;-54
2022/07/18 14:11:02;;;;;;;2.83;2.20;;;;;;;;;;5010390;28;20206;-54
2022/07/18 14:13:28;;;;;;;4.07;1.97;;;;;;;;;;5011902;28;20212;-54
2022/07/18 14:15:56;;;;;;;3.57;2.33;;;;;;;;;;5011715;28;20195;-54
2022/07/18 14:18:22;;;;;;;2.70;2.20;;;;;;;;;;5011769;28;20204;-54
2022/07/18 14:20:47;;;;;;;3.23;2.50;;;;;;;;;;5011690;28;20220;-54
2022/07/18 14:23:13;;;;;;;3.67;2.30;;;;;;;;;;5011968;28;20204;-54
2022/07/18 14:25:39;;;;;;;4.47;2.00;;;;;;;;;;5011880;28;20619;-54
2022/07/18 14:28:05;;;;;;;5.33;2.40;;;;;;;;;;5011706;28;20201;-54
2022/07/18 14:30:32;;;;;;;5.10;2.50;;;;;;;;;;5011943;28;20260;-54
2022/07/18 14:32:59;;;;;;;4.77;2.20;;;;;;;;;;5011579;28;20224;-54
2022/07/18 14:35:25;;;;;;;6.67;2.30;;;;;;;;;;5011521;28;20255;-54
2022/07/18 14:37:51;;;;;;;3.40;2.20;;;;;;;;;;5011482;28;20208;-54
2022/07/18 14:40:17;;;;;;;2.80;2.03;;;;;;;;;;5011535;28;20299;-54
2022/07/18 14:42:43;;;;;;;2.37;2.00;;;;;;;;;;5011370;28;20236;-55
2022/07/18 14:45:09;;;;;;;3.30;2.20;;;;;;;;;;5011441;28;20644;-54
2022/07/18 14:47:36;;;;;;;2.80;2.37;;;;;;;;;;5011557;28;20298;-52
2022/07/18 14:50:03;;;;;;;6.30;2.40;;;;;;;;;;5011603;28;20204;-52
2022/07/18 14:52:29;;;;;;;2.60;2.30;;;;;;;;;;5011542;28;20689;-52
2022/07/18 14:54:55;;;;;;;2.47;2.10;;;;;;;;;;5011551;28;20704;-52
2022/07/18 14:57:21;;;;;;;3.10;2.40;;;;;;;;;;5011442;28;20221;-52
2022/07/18 14:59:47;;;;;;;2.97;1.97;;;;;;;;;;5011428;28;20235;-52
2022/07/18 15:02:14;;;;;;;7.20;2.13;;;;;;;;;;5011505;28;20282;-52
2022/07/18 15:04:40;;;;;;;7.33;1.93;;;;;;;;;;5011333;28;20673;-53
2022/07/18 15:07:07;;;;;;;3.03;2.07;;;;;;;;;;5011166;28;20722;-53
2022/07/18 15:09:33;;;;;;;6.17;2.20;;;;;;;;;;5011304;28;20210;-52
2022/07/18 15:11:59;;;;;;;2.43;1.80;;;;;;;;;;5011897;28;20664;-52
2022/07/18 15:14:27;;;;;;;4.20;1.80;;;;;;;;;;5015077;28;20235;-53
2022/07/18 15:16:53;;;;;;;3.70;2.00;;;;;;;;;;5014657;28;20643;-55
2022/07/18 15:19:19;;;;;;;4.90;2.10;;;;;;;;;;5014776;28;20195;-52
2022/07/18 15:21:45;;;;;;;2.77;2.03;;;;;;;;;;5014778;28;20316;-52
2022/07/18 15:24:12;;;;;;;2.80;2.00;;;;;;;;;;5014783;28;20240;-53
2022/07/18 15:26:38;;;;;;;2.13;1.80;;;;;;;;;;5014500;28;20240;-55
2022/07/18 15:29:06;;;;;;;2.80;1.97;;;;;;;;;;5014446;28;20238;-54
2022/07/18 15:31:32;;;;;;;2.80;1.90;;;;;;;;;;5014668;28;20234;-54